Time;durP1;ratioP1;P1;durP2;ratioP2;P2;SDS_P1;SDS_P2;PMS_P1;PMS_P2;Temp;Humidity;BMP_temperature;BMP_pressure;BME280_temperature;BME280_humidity;BME280_pressure;Samples;Min_cycle;Max_cycle;Signal;HPM_P1;HPM_P2
2021/03/11 00:01:28;;;;;;;22.02;16.98;;;;;;;;;;5080636;28;20047;-69
2021/03/11 00:03:54;;;;;;;27.73;19.27;;;;;;;;;;5089356;28;20044;-69
2021/03/11 00:06:20;;;;;;;24.23;19.27;;;;;;;;;;5088688;28;20070;-69
2021/03/11 00:08:46;;;;;;;17.15;12.90;;;;;;;;;;5088834;28;20036;-69
2021/03/11 00:11:12;;;;;;;26.52;20.48;;;;;;;;;;5085794;28;20036;-70
2021/03/11 00:13:38;;;;;;;25.13;19.08;;;;;;;;;;5089440;28;20037;-69
2021/03/11 00:16:04;;;;;;;21.02;15.48;;;;;;;;;;5089474;28;20455;-69
2021/03/11 00:18:31;;;;;;;25.35;20.08;;;;;;;;;;5090166;28;20036;-69
2021/03/11 00:20:57;;;;;;;18.02;13.98;;;;;;;;;;5087692;28;20039;-69
2021/03/11 00:23:23;;;;;;;27.27;20.67;;;;;;;;;;5089106;28;20039;-68
2021/03/11 00:25:49;;;;;;;24.90;17.85;;;;;;;;;;5089887;28;20123;-69
2021/03/11 00:28:15;;;;;;;22.88;15.55;;;;;;;;;;5093148;28;20355;-69
2021/03/11 00:30:41;;;;;;;23.85;17.98;;;;;;;;;;5085364;28;20089;-69
2021/03/11 00:33:07;;;;;;;15.02;12.65;;;;;;;;;;5092414;28;20093;-69
2021/03/11 00:35:33;;;;;;;22.63;16.67;;;;;;;;;;5091425;28;20051;-69
2021/03/11 00:37:59;;;;;;;20.10;14.05;;;;;;;;;;5093315;28;20459;-69
2021/03/11 00:40:25;;;;;;;23.13;17.85;;;;;;;;;;5092473;28;20123;-69
2021/03/11 00:42:51;;;;;;;24.50;18.67;;;;;;;;;;5089694;28;20492;-69
2021/03/11 00:45:18;;;;;;;22.38;17.40;;;;;;;;;;5092548;28;20040;-69
2021/03/11 00:47:44;;;;;;;20.27;15.95;;;;;;;;;;5092464;28;20100;-69
2021/03/11 00:50:12;;;;;;;13.07;11.40;;;;;;;;;;5074476;28;20525;-69
2021/03/11 00:52:38;;;;;;;23.98;18.25;;;;;;;;;;5093344;28;20039;-69
2021/03/11 00:55:08;;;;;;;19.70;15.20;;;;;;;;;;5092629;28;20625;-69
2021/03/11 00:57:34;;;;;;;21.52;16.63;;;;;;;;;;5091533;28;20101;-69
2021/03/11 01:00:00;;;;;;;22.77;16.88;;;;;;;;;;5073480;28;20115;-69
2021/03/11 01:02:26;;;;;;;22.90;16.05;;;;;;;;;;5092553;28;20043;-69
2021/03/11 01:04:52;;;;;;;21.15;16.25;;;;;;;;;;5091176;28;20042;-69
2021/03/11 01:07:19;;;;;;;20.20;14.85;;;;;;;;;;5092389;28;20067;-69
2021/03/11 01:09:45;;;;;;;18.83;15.45;;;;;;;;;;5080858;28;20161;-70
2021/03/11 01:12:13;;;;;;;13.05;10.68;;;;;;;;;;5089385;28;20087;-69
2021/03/11 01:14:39;;;;;;;21.17;15.40;;;;;;;;;;5091848;28;20047;-69
2021/03/11 01:17:05;;;;;;;19.33;15.02;;;;;;;;;;5074076;28;20048;-69
2021/03/11 01:19:31;;;;;;;20.95;16.42;;;;;;;;;;5089662;28;20358;-69
2021/03/11 01:21:57;;;;;;;17.65;13.98;;;;;;;;;;5092266;28;20059;-69
2021/03/11 01:24:23;;;;;;;22.65;14.95;;;;;;;;;;5092229;28;20028;-69
2021/03/11 01:26:49;;;;;;;16.58;13.90;;;;;;;;;;5092008;28;20051;-69
2021/03/11 01:29:17;;;;;;;18.15;14.20;;;;;;;;;;5087206;28;20047;-69
2021/03/11 01:31:43;;;;;;;20.15;15.25;;;;;;;;;;5084898;28;20078;-69
2021/03/11 01:34:09;;;;;;;20.25;15.95;;;;;;;;;;5092228;28;20231;-70
2021/03/11 01:36:35;;;;;;;20.23;16.25;;;;;;;;;;5091828;28;20110;-69
2021/03/11 01:39:01;;;;;;;19.02;15.35;;;;;;;;;;5090634;28;20063;-69
2021/03/11 01:41:27;;;;;;;19.25;14.90;;;;;;;;;;5091509;28;20039;-69
2021/03/11 01:43:56;;;;;;;19.17;13.52;;;;;;;;;;5091571;28;20040;-69
2021/03/11 01:46:23;;;;;;;19.73;15.10;;;;;;;;;;5092051;28;20035;-69
2021/03/11 01:48:50;;;;;;;20.38;16.67;;;;;;;;;;5089716;28;20051;-69
2021/03/11 01:51:17;;;;;;;19.05;13.73;;;;;;;;;;5090470;28;20123;-70
2021/03/11 01:53:43;;;;;;;20.38;16.08;;;;;;;;;;5089702;28;20238;-69
2021/03/11 01:56:09;;;;;;;15.18;11.30;;;;;;;;;;5090699;28;20052;-69
2021/03/11 01:58:35;;;;;;;22.38;17.02;;;;;;;;;;5089531;28;20031;-69
2021/03/11 02:01:01;;;;;;;19.15;15.63;;;;;;;;;;5090946;28;20494;-69
2021/03/11 02:03:27;;;;;;;17.92;13.32;;;;;;;;;;5087153;28;20443;-70
2021/03/11 02:05:53;;;;;;;22.17;17.13;;;;;;;;;;5090433;28;20036;-70
2021/03/11 02:08:19;;;;;;;18.25;14.77;;;;;;;;;;5072642;28;20143;-69
2021/03/11 02:10:46;;;;;;;19.35;15.88;;;;;;;;;;5087466;28;20044;-69
2021/03/11 02:13:30;;;;;;;20.77;16.10;;;;;;;;;;5087687;28;20036;-70
2021/03/11 02:16:15;;;;;;;18.05;15.07;;;;;;;;;;5090316;28;20042;-70
2021/03/11 02:18:44;;;;;;;19.88;15.40;;;;;;;;;;5090166;28;20036;-70
2021/03/11 02:21:21;;;;;;;19.30;14.98;;;;;;;;;;5087963;28;20067;-70
2021/03/11 02:23:56;;;;;;;13.95;11.57;;;;;;;;;;5080650;28;20040;-70
2021/03/11 02:26:25;;;;;;;20.73;15.63;;;;;;;;;;5087468;28;20051;-70
2021/03/11 02:28:54;;;;;;;20.13;15.73;;;;;;;;;;5090927;28;20123;-70
2021/03/11 02:31:21;;;;;;;19.35;15.38;;;;;;;;;;5089798;28;20036;-70
2021/03/11 02:33:48;;;;;;;18.60;14.82;;;;;;;;;;5088644;28;20397;-70
2021/03/11 02:36:14;;;;;;;19.90;13.75;;;;;;;;;;5081796;28;20039;-70
2021/03/11 02:38:42;;;;;;;20.15;15.43;;;;;;;;;;5091170;28;20040;-71
2021/03/11 02:41:09;;;;;;;15.07;12.77;;;;;;;;;;5089519;28;20028;-70
2021/03/11 02:43:35;;;;;;;18.73;14.82;;;;;;;;;;5090154;28;20521;-70
2021/03/11 02:46:02;;;;;;;17.65;13.75;;;;;;;;;;5089768;28;20054;-70
2021/03/11 02:48:29;;;;;;;17.33;12.95;;;;;;;;;;5072584;28;20762;-71
2021/03/11 02:50:57;;;;;;;19.02;14.75;;;;;;;;;;5088345;28;20048;-70
2021/03/11 02:53:23;;;;;;;14.25;10.70;;;;;;;;;;5089832;28;20106;-71
2021/03/11 02:55:50;;;;;;;19.52;15.45;;;;;;;;;;5091309;28;20653;-71
2021/03/11 02:58:17;;;;;;;8.70;7.18;;;;;;;;;;5090921;28;20093;-70
2021/03/11 03:00:51;;;;;;;12.20;9.45;;;;;;;;;;5089209;28;20086;-70
2021/03/11 03:03:17;;;;;;;18.00;13.77;;;;;;;;;;5090490;28;20043;-71
2021/03/11 03:05:43;;;;;;;16.30;11.30;;;;;;;;;;5086663;28;20114;-71
2021/03/11 03:08:10;;;;;;;11.45;9.13;;;;;;;;;;5090187;28;20524;-71
2021/03/11 03:10:36;;;;;;;15.40;12.13;;;;;;;;;;5096489;22;20377;-67
2021/03/11 03:13:05;;;;;;;16.90;11.98;;;;;;;;;;5069762;28;20492;-67
2021/03/11 03:15:32;;;;;;;13.60;11.40;;;;;;;;;;5087479;28;20036;-67
2021/03/11 03:17:59;;;;;;;14.52;11.85;;;;;;;;;;5087826;28;20137;-67
2021/03/11 03:20:26;;;;;;;13.20;11.75;;;;;;;;;;5089751;28;20028;-67
2021/03/11 03:22:52;;;;;;;13.13;10.65;;;;;;;;;;5090311;28;20036;-67
2021/03/11 03:25:18;;;;;;;11.65;10.27;;;;;;;;;;5089244;28;20068;-67
2021/03/11 03:27:45;;;;;;;12.43;10.60;;;;;;;;;;5087665;28;20032;-67
2021/03/11 03:30:12;;;;;;;14.20;10.00;;;;;;;;;;5089688;28;20051;-67
2021/03/11 03:32:39;;;;;;;14.82;11.43;;;;;;;;;;5070805;28;20036;-67
2021/03/11 03:35:06;;;;;;;12.18;9.93;;;;;;;;;;5086830;28;20043;-67
2021/03/11 03:37:32;;;;;;;11.27;8.95;;;;;;;;;;5089851;28;20028;-67
2021/03/11 03:39:58;;;;;;;14.02;10.90;;;;;;;;;;5089132;28;20176;-67
2021/03/11 03:42:26;;;;;;;12.75;10.18;;;;;;;;;;5071005;28;20034;-67
2021/03/11 03:44:52;;;;;;;10.98;9.77;;;;;;;;;;5064654;28;20032;-67
2021/03/11 03:47:19;;;;;;;9.40;8.20;;;;;;;;;;5083902;28;20040;-67
2021/03/11 03:49:45;;;;;;;11.27;8.95;;;;;;;;;;5089405;28;20101;-67
2021/03/11 03:52:12;;;;;;;10.80;9.13;;;;;;;;;;5089734;28;20048;-67
2021/03/11 03:54:42;;;;;;;10.68;9.18;;;;;;;;;;5087882;28;20110;-66
2021/03/11 03:57:14;;;;;;;9.73;8.63;;;;;;;;;;5066294;28;20044;-67
2021/03/11 03:59:41;;;;;;;11.05;9.55;;;;;;;;;;5089804;28;20579;-66
2021/03/11 04:02:07;;;;;;;10.52;8.52;;;;;;;;;;5093884;28;20039;-66
2021/03/11 04:04:36;;;;;;;6.60;5.65;;;;;;;;;;5078248;28;20044;-66
2021/03/11 04:07:03;;;;;;;11.57;9.88;;;;;;;;;;5093824;28;20044;-67
2021/03/11 04:09:29;;;;;;;10.55;8.40;;;;;;;;;;5092824;28;20039;-67
2021/03/11 04:11:55;;;;;;;10.50;8.68;;;;;;;;;;5089390;28;20040;-67
2021/03/11 04:14:22;;;;;;;12.45;10.52;;;;;;;;;;5081075;28;20373;-67
2021/03/11 04:16:49;;;;;;;11.40;10.23;;;;;;;;;;5092293;28;20039;-67
2021/03/11 04:19:16;;;;;;;11.73;9.90;;;;;;;;;;5093748;28;20042;-67
2021/03/11 04:21:42;;;;;;;11.82;10.38;;;;;;;;;;5093353;28;20032;-67
2021/03/11 04:24:09;;;;;;;9.70;7.25;;;;;;;;;;5091947;28;20470;-67
2021/03/11 04:26:36;;;;;;;12.98;11.00;;;;;;;;;;5094945;28;20067;-67
2021/03/11 04:29:03;;;;;;;9.55;7.45;;;;;;;;;;5092890;28;20160;-72
2021/03/11 04:31:29;;;;;;;13.40;11.18;;;;;;;;;;5092718;28;20273;-68
2021/03/11 04:33:56;;;;;;;9.63;8.48;;;;;;;;;;5087050;28;20050;-67
2021/03/11 04:36:23;;;;;;;9.60;8.60;;;;;;;;;;5088179;28;20044;-66
2021/03/11 04:38:49;;;;;;;9.65;8.57;;;;;;;;;;5074087;28;20032;-67
2021/03/11 04:41:16;;;;;;;10.25;9.18;;;;;;;;;;5088249;28;20093;-68
2021/03/11 04:43:42;;;;;;;10.77;8.85;;;;;;;;;;5091962;28;20115;-67
2021/03/11 04:46:08;;;;;;;9.65;8.65;;;;;;;;;;5089829;28;20040;-67
2021/03/11 04:48:34;;;;;;;9.93;8.93;;;;;;;;;;5091019;28;20085;-67
2021/03/11 04:51:01;;;;;;;11.38;9.48;;;;;;;;;;5090275;28;20483;-67
2021/03/11 04:53:28;;;;;;;9.30;8.30;;;;;;;;;;5092822;28;20032;-67
2021/03/11 04:55:54;;;;;;;9.73;8.45;;;;;;;;;;5089818;28;20047;-67
2021/03/11 04:58:20;;;;;;;10.20;9.10;;;;;;;;;;5092645;28;20036;-67
2021/03/11 05:00:48;;;;;;;11.38;9.88;;;;;;;;;;5091518;28;20032;-67
2021/03/11 05:03:15;;;;;;;11.23;9.68;;;;;;;;;;5091426;28;20032;-67
2021/03/11 05:05:42;;;;;;;10.57;8.73;;;;;;;;;;5090115;28;20040;-67
2021/03/11 05:08:08;;;;;;;8.80;7.90;;;;;;;;;;5072059;28;20055;-67
2021/03/11 05:10:35;;;;;;;9.35;8.45;;;;;;;;;;5069673;28;20027;-67
2021/03/11 05:13:01;;;;;;;10.05;9.05;;;;;;;;;;5069782;28;20107;-66
2021/03/11 05:15:28;;;;;;;8.60;7.15;;;;;;;;;;5091322;28;20028;-67
2021/03/11 05:17:54;;;;;;;9.27;8.10;;;;;;;;;;5091540;28;20036;-67
2021/03/11 05:20:20;;;;;;;9.38;8.32;;;;;;;;;;5091811;28;20024;-67
2021/03/11 05:22:47;;;;;;;8.85;7.95;;;;;;;;;;5091174;28;20089;-67
2021/03/11 05:25:13;;;;;;;10.32;9.32;;;;;;;;;;5091265;28;20063;-67
2021/03/11 05:27:40;;;;;;;9.45;8.55;;;;;;;;;;5092813;28;20039;-67
2021/03/11 05:30:08;;;;;;;11.02;9.45;;;;;;;;;;5067124;28;20854;-67
2021/03/11 05:32:34;;;;;;;9.20;8.27;;;;;;;;;;5088153;28;20061;-67
2021/03/11 05:35:00;;;;;;;9.18;8.25;;;;;;;;;;5090133;28;20039;-68
2021/03/11 05:37:26;;;;;;;12.65;9.70;;;;;;;;;;5090020;28;20851;-68
2021/03/11 05:39:52;;;;;;;11.88;10.68;;;;;;;;;;5072988;28;20738;-68
2021/03/11 05:42:19;;;;;;;12.15;9.60;;;;;;;;;;5091199;28;20040;-68
2021/03/11 05:44:46;;;;;;;9.43;8.32;;;;;;;;;;5089122;28;20097;-67
2021/03/11 05:47:13;;;;;;;11.88;8.02;;;;;;;;;;5091203;28;20032;-68
2021/03/11 05:49:42;;;;;;;8.93;7.60;;;;;;;;;;5090120;28;20040;-67
2021/03/11 05:52:09;;;;;;;9.82;8.35;;;;;;;;;;5086895;28;20040;-67
2021/03/11 05:54:36;;;;;;;10.55;9.02;;;;;;;;;;5090337;28;20044;-67
2021/03/11 05:57:03;;;;;;;11.23;9.13;;;;;;;;;;5090612;28;20044;-67
2021/03/11 05:59:29;;;;;;;12.23;9.98;;;;;;;;;;5091400;28;20032;-67
2021/03/11 06:01:56;;;;;;;12.13;9.68;;;;;;;;;;5090531;28;20032;-67
2021/03/11 06:04:22;;;;;;;9.75;8.77;;;;;;;;;;5088349;28;20060;-67
2021/03/11 06:06:49;;;;;;;12.23;10.50;;;;;;;;;;5089890;28;20385;-67
2021/03/11 06:09:17;;;;;;;13.80;11.45;;;;;;;;;;5087899;28;20036;-68
2021/03/11 06:11:44;;;;;;;8.07;7.25;;;;;;;;;;5089111;28;20444;-67
2021/03/11 06:14:12;;;;;;;12.60;10.35;;;;;;;;;;5076387;28;20040;-68
2021/03/11 06:16:40;;;;;;;13.10;10.27;;;;;;;;;;5091124;28;20040;-68
2021/03/11 06:19:06;;;;;;;13.55;10.75;;;;;;;;;;5085263;28;20032;-67
2021/03/11 06:21:32;;;;;;;7.93;6.88;;;;;;;;;;5071007;28;20470;-67
2021/03/11 06:23:58;;;;;;;12.52;11.23;;;;;;;;;;5087813;28;20028;-67
2021/03/11 06:26:24;;;;;;;13.32;9.40;;;;;;;;;;5090439;28;20094;-67
2021/03/11 06:28:51;;;;;;;12.13;10.50;;;;;;;;;;5090735;28;20040;-68
2021/03/11 06:31:17;;;;;;;13.65;12.05;;;;;;;;;;5086074;28;21016;-67
2021/03/11 06:33:43;;;;;;;12.85;11.48;;;;;;;;;;5082599;28;20687;-68
2021/03/11 06:36:16;;;;;;;9.77;8.20;;;;;;;;;;5089238;28;20044;-67
2021/03/11 06:38:42;;;;;;;13.57;10.77;;;;;;;;;;5090235;28;20063;-68
2021/03/11 06:41:08;;;;;;;14.40;11.50;;;;;;;;;;5089909;28;20040;-67
2021/03/11 06:43:35;;;;;;;12.60;9.27;;;;;;;;;;5087289;28;20071;-68
2021/03/11 06:46:04;;;;;;;9.38;7.55;;;;;;;;;;5087554;28;20040;-66
2021/03/11 06:48:30;;;;;;;7.32;6.63;;;;;;;;;;5089770;28;20044;-67
2021/03/11 06:50:57;;;;;;;9.25;8.00;;;;;;;;;;5088550;28;20032;-68
2021/03/11 06:53:23;;;;;;;11.40;8.57;;;;;;;;;;5071001;28;20126;-67
2021/03/11 06:55:50;;;;;;;9.13;7.45;;;;;;;;;;5090219;28;20040;-67
2021/03/11 06:58:17;;;;;;;10.43;9.20;;;;;;;;;;5087019;28;20481;-67
2021/03/11 07:00:44;;;;;;;8.18;6.93;;;;;;;;;;5068019;28;20039;-66
2021/03/11 07:03:10;;;;;;;10.82;9.35;;;;;;;;;;5070404;28;20054;-68
2021/03/11 07:05:40;;;;;;;13.13;10.27;;;;;;;;;;5089270;28;20036;-67
2021/03/11 07:08:19;;;;;;;11.75;8.65;;;;;;;;;;5087161;28;20043;-68
2021/03/11 07:10:46;;;;;;;11.55;8.43;;;;;;;;;;5086277;28;20087;-67
2021/03/11 07:13:12;;;;;;;11.10;8.13;;;;;;;;;;5085772;28;20043;-67
2021/03/11 07:15:39;;;;;;;7.97;6.70;;;;;;;;;;5063982;28;20397;-67
2021/03/11 07:18:12;;;;;;;8.20;5.97;;;;;;;;;;5064401;28;20059;-67
2021/03/11 07:20:38;;;;;;;10.63;8.98;;;;;;;;;;5082702;28;20034;-67
2021/03/11 07:23:06;;;;;;;11.32;8.32;;;;;;;;;;5089788;28;20118;-67
2021/03/11 07:25:58;;;;;;;9.48;6.80;;;;;;;;;;5084034;28;20350;-67
2021/03/11 07:28:25;;;;;;;10.18;6.88;;;;;;;;;;5060093;28;20104;-67
2021/03/11 07:30:58;;;;;;;8.85;4.78;;;;;;;;;;5068265;28;20097;-67
2021/03/11 07:33:25;;;;;;;8.30;5.63;;;;;;;;;;5086440;28;20036;-68
2021/03/11 07:35:54;;;;;;;11.05;7.38;;;;;;;;;;5090762;28;20044;-67
2021/03/11 07:38:24;;;;;;;10.88;7.45;;;;;;;;;;5088558;28;20063;-68
2021/03/11 07:40:51;;;;;;;8.55;5.90;;;;;;;;;;5089877;28;20059;-68
2021/03/11 07:43:18;;;;;;;9.45;6.47;;;;;;;;;;5089676;28;20744;-67
2021/03/11 07:45:44;;;;;;;8.88;6.00;;;;;;;;;;5088948;28;20036;-66
2021/03/11 07:48:11;;;;;;;9.55;6.28;;;;;;;;;;5073237;28;20093;-67
2021/03/11 07:50:38;;;;;;;12.10;6.90;;;;;;;;;;5071899;28;20040;-67
2021/03/11 07:53:05;;;;;;;9.60;6.90;;;;;;;;;;5072114;28;20612;-67
2021/03/11 07:55:32;;;;;;;14.48;7.10;;;;;;;;;;5090152;28;20139;-67
2021/03/11 07:58:01;;;;;;;9.75;6.28;;;;;;;;;;5069129;28;20105;-67
2021/03/11 08:00:28;;;;;;;13.88;7.63;;;;;;;;;;5071931;28;20054;-68
2021/03/11 08:03:04;;;;;;;12.40;6.60;;;;;;;;;;5091225;28;20488;-67
2021/03/11 08:05:31;;;;;;;12.20;6.20;;;;;;;;;;5070979;28;20032;-67
2021/03/11 08:08:15;;;;;;;5.85;4.28;;;;;;;;;;5089504;28;20460;-67
2021/03/11 08:10:52;;;;;;;11.30;5.80;;;;;;;;;;5088486;28;20139;-68
2021/03/11 08:13:24;;;;;;;9.00;5.10;;;;;;;;;;5066158;28;20191;-67
2021/03/11 08:15:50;;;;;;;10.48;5.00;;;;;;;;;;5079182;28;20041;-67
2021/03/11 08:18:35;;;;;;;9.23;6.10;;;;;;;;;;5062782;28;20036;-67
2021/03/11 08:21:01;;;;;;;13.18;5.80;;;;;;;;;;5076094;28;20495;-67
2021/03/11 08:23:27;;;;;;;10.95;6.18;;;;;;;;;;5087806;28;20032;-68
2021/03/11 08:25:53;;;;;;;10.73;4.50;;;;;;;;;;5088005;28;20039;-66
2021/03/11 08:28:20;;;;;;;11.73;5.40;;;;;;;;;;5085298;28;20043;-67
2021/03/11 08:30:50;;;;;;;15.68;5.20;;;;;;;;;;5086878;28;20040;-68
2021/03/11 08:33:38;;;;;;;12.60;5.60;;;;;;;;;;5064144;28;20039;-68
2021/03/11 08:36:05;;;;;;;13.88;4.93;;;;;;;;;;5067184;28;20478;-68
2021/03/11 08:38:38;;;;;;;12.20;4.40;;;;;;;;;;5081721;28;20109;-68
2021/03/11 08:41:07;;;;;;;12.10;4.28;;;;;;;;;;5085670;28;20032;-67
2021/03/11 08:46:03;;;;;;;17.08;4.43;;;;;;;;;;5082773;28;20060;-68
2021/03/11 08:48:46;;;;;;;18.17;4.63;;;;;;;;;;5084507;28;20071;-68
2021/03/11 08:51:18;;;;;;;15.48;4.10;;;;;;;;;;5068498;28;20442;-68
2021/03/11 08:53:51;;;;;;;22.48;5.72;;;;;;;;;;5086201;28;20067;-68
2021/03/11 08:56:17;;;;;;;31.30;5.47;;;;;;;;;;5086072;28;20047;-68
2021/03/11 08:59:02;;;;;;;26.48;7.13;;;;;;;;;;5089046;28;20535;-67
2021/03/11 09:01:31;;;;;;;24.95;7.30;;;;;;;;;;5089785;28;20039;-68
2021/03/11 09:03:58;;;;;;;22.10;4.18;;;;;;;;;;5072084;28;20043;-68
2021/03/11 09:06:43;;;;;;;25.15;4.75;;;;;;;;;;5069966;28;20040;-68
2021/03/11 09:09:09;;;;;;;22.10;5.43;;;;;;;;;;5076800;28;20115;-67
2021/03/11 09:11:35;;;;;;;9.63;2.90;;;;;;;;;;5093159;28;20432;-67
2021/03/11 09:14:09;;;;;;;28.63;6.18;;;;;;;;;;5079821;28;20098;-68
2021/03/11 09:16:35;;;;;;;25.63;6.28;;;;;;;;;;5092269;28;20040;-68
2021/03/11 09:19:01;;;;;;;24.67;4.97;;;;;;;;;;5089811;28;20036;-68
2021/03/11 09:21:34;;;;;;;21.08;3.83;;;;;;;;;;5088104;28;20032;-67
2021/03/11 09:24:00;;;;;;;22.55;4.95;;;;;;;;;;5091182;28;20044;-68
2021/03/11 09:26:28;;;;;;;25.83;5.40;;;;;;;;;;5092844;28;20036;-69
2021/03/11 09:28:54;;;;;;;23.13;6.03;;;;;;;;;;5090575;28;20036;-69
2021/03/11 09:31:21;;;;;;;25.27;4.57;;;;;;;;;;5092639;28;20043;-67
2021/03/11 09:33:47;;;;;;;21.85;4.35;;;;;;;;;;5091917;28;20036;-68
2021/03/11 09:36:15;;;;;;;23.73;5.05;;;;;;;;;;5089798;28;20040;-67
2021/03/11 09:38:41;;;;;;;15.77;3.88;;;;;;;;;;5071239;28;20482;-68
2021/03/11 09:41:07;;;;;;;28.65;6.03;;;;;;;;;;5090386;28;20043;-68
2021/03/11 09:43:35;;;;;;;22.67;4.82;;;;;;;;;;5068906;28;20035;-68
2021/03/11 09:46:02;;;;;;;20.58;5.45;;;;;;;;;;5084086;28;20036;-68
2021/03/11 09:48:30;;;;;;;19.83;4.13;;;;;;;;;;5079887;28;20031;-67
2021/03/11 09:50:58;;;;;;;21.95;4.65;;;;;;;;;;5080251;28;20067;-67
2021/03/11 09:53:25;;;;;;;19.75;4.53;;;;;;;;;;5077527;28;20040;-68
2021/03/11 09:55:55;;;;;;;15.45;3.60;;;;;;;;;;5089530;28;20047;-68
2021/03/11 09:58:21;;;;;;;17.13;3.60;;;;;;;;;;5085900;28;20056;-67
2021/03/11 10:00:49;;;;;;;18.13;4.03;;;;;;;;;;5087260;28;20493;-67
2021/03/11 10:03:28;;;;;;;29.08;5.60;;;;;;;;;;5087840;28;20031;-67
2021/03/11 10:06:01;;;;;;;23.30;5.43;;;;;;;;;;5087421;28;20394;-67
2021/03/11 10:08:31;;;;;;;20.90;5.43;;;;;;;;;;5086046;28;20040;-67
2021/03/11 10:11:13;;;;;;;22.88;5.13;;;;;;;;;;5060847;28;20056;-67
2021/03/11 10:13:41;;;;;;;18.83;4.00;;;;;;;;;;5065578;28;20069;-67
2021/03/11 10:16:07;;;;;;;19.33;4.95;;;;;;;;;;5085061;28;20807;-67
2021/03/11 10:18:34;;;;;;;20.98;5.05;;;;;;;;;;5084631;28;20040;-68
2021/03/11 10:21:08;;;;;;;15.38;3.70;;;;;;;;;;5089543;28;20032;-68
2021/03/11 10:23:35;;;;;;;20.90;4.82;;;;;;;;;;5065819;28;20123;-67
2021/03/11 10:26:13;;;;;;;27.23;5.70;;;;;;;;;;5090159;28;20115;-67
2021/03/11 10:28:40;;;;;;;26.42;5.63;;;;;;;;;;5089677;28;20503;-68
2021/03/11 10:31:07;;;;;;;29.70;5.38;;;;;;;;;;5087399;28;20062;-68
2021/03/11 10:33:34;;;;;;;20.75;5.20;;;;;;;;;;5064795;28;20040;-67
2021/03/11 10:36:10;;;;;;;24.17;5.38;;;;;;;;;;5083187;28;20036;-67
2021/03/11 10:38:37;;;;;;;21.50;5.22;;;;;;;;;;5055659;28;20059;-67
2021/03/11 10:41:13;;;;;;;30.75;5.47;;;;;;;;;;5085335;28;20104;-67
2021/03/11 10:43:40;;;;;;;22.60;4.97;;;;;;;;;;5082973;28;20119;-68
2021/03/11 10:46:07;;;;;;;25.08;6.40;;;;;;;;;;5077460;28;20040;-67
2021/03/11 10:48:49;;;;;;;18.08;4.20;;;;;;;;;;5080749;28;20116;-67
2021/03/11 10:51:15;;;;;;;;;;;;;;;;;;5090150;28;20059;-67
2021/03/11 10:53:41;;;;;;;26.60;5.47;;;;;;;;;;5091253;28;19955;-67
2021/03/11 10:56:07;;;;;;;16.45;4.03;;;;;;;;;;5071219;28;20048;-67
2021/03/11 10:58:34;;;;;;;22.45;4.68;;;;;;;;;;5088647;28;20115;-68
2021/03/11 11:01:09;;;;;;;17.50;4.28;;;;;;;;;;5090571;28;20032;-68
2021/03/11 11:03:35;;;;;;;20.17;4.10;;;;;;;;;;5091957;28;20036;-68
2021/03/11 11:06:01;;;;;;;17.70;4.70;;;;;;;;;;5071850;28;20051;-69
2021/03/11 11:08:28;;;;;;;18.63;4.50;;;;;;;;;;5090682;28;20032;-69
2021/03/11 11:10:54;;;;;;;17.42;3.65;;;;;;;;;;5089144;28;20044;-68
2021/03/11 11:13:20;;;;;;;17.35;4.32;;;;;;;;;;5087444;28;20038;-68
2021/03/11 11:15:46;;;;;;;20.17;3.88;;;;;;;;;;5086918;28;20441;-68
2021/03/11 11:18:12;;;;;;;16.83;4.40;;;;;;;;;;5089110;28;20051;-68
2021/03/11 11:20:38;;;;;;;27.40;5.75;;;;;;;;;;5089417;28;20040;-73
2021/03/11 11:23:05;;;;;;;17.55;4.10;;;;;;;;;;5089489;28;20039;-73
2021/03/11 11:25:31;;;;;;;9.68;2.20;;;;;;;;;;5071856;28;20052;-73
2021/03/11 11:27:58;;;;;;;22.20;5.05;;;;;;;;;;5090792;28;20032;-73
2021/03/11 11:30:24;;;;;;;20.98;3.80;;;;;;;;;;5071562;28;20036;-74
2021/03/11 11:32:51;;;;;;;15.25;3.80;;;;;;;;;;5069019;28;20036;-73
2021/03/11 11:35:17;;;;;;;16.20;3.30;;;;;;;;;;5073209;28;20123;-73
2021/03/11 11:37:44;;;;;;;13.38;3.75;;;;;;;;;;5071454;28;20085;-73
2021/03/11 11:40:10;;;;;;;18.75;4.55;;;;;;;;;;5072417;28;20116;-72
2021/03/11 11:42:37;;;;;;;18.58;4.38;;;;;;;;;;5067752;28;20032;-73
2021/03/11 11:45:04;;;;;;;21.95;3.97;;;;;;;;;;5087174;28;20465;-73
2021/03/11 11:47:31;;;;;;;16.77;3.97;;;;;;;;;;5091074;28;20044;-73
2021/03/11 11:49:57;;;;;;;20.75;4.53;;;;;;;;;;5090709;28;20040;-74
2021/03/11 11:52:23;;;;;;;20.52;5.25;;;;;;;;;;5089535;28;20046;-74
2021/03/11 11:54:49;;;;;;;21.55;6.25;;;;;;;;;;5090255;28;20089;-72
2021/03/11 11:57:15;;;;;;;21.52;4.18;;;;;;;;;;5086937;28;20035;-72
2021/03/11 11:59:42;;;;;;;18.15;4.60;;;;;;;;;;5069720;28;20040;-72
2021/03/11 12:02:08;;;;;;;17.17;4.30;;;;;;;;;;5086332;28;20699;-72
2021/03/11 12:04:34;;;;;;;23.90;5.10;;;;;;;;;;5088143;28;20039;-72
2021/03/11 12:07:01;;;;;;;21.70;5.05;;;;;;;;;;5071088;28;20044;-73
2021/03/11 12:09:27;;;;;;;15.80;3.60;;;;;;;;;;5086506;28;20085;-73
2021/03/11 12:11:53;;;;;;;20.33;4.38;;;;;;;;;;5083195;28;20416;-73
2021/03/11 12:14:19;;;;;;;16.00;4.13;;;;;;;;;;5051264;28;20051;-73
2021/03/11 12:16:45;;;;;;;16.58;4.50;;;;;;;;;;5088295;28;20040;-73
2021/03/11 12:19:12;;;;;;;12.57;3.13;;;;;;;;;;5066249;28;20044;-74
2021/03/11 12:21:38;;;;;;;17.58;3.78;;;;;;;;;;5085633;28;20102;-73
2021/03/11 12:24:04;;;;;;;20.40;4.88;;;;;;;;;;5088480;28;20463;-72
2021/03/11 12:26:30;;;;;;;25.02;5.70;;;;;;;;;;5062990;28;20051;-73
2021/03/11 12:28:57;;;;;;;25.58;5.20;;;;;;;;;;5088306;28;20039;-73
2021/03/11 12:31:24;;;;;;;24.30;4.97;;;;;;;;;;5060787;28;21083;-73
2021/03/11 12:33:51;;;;;;;23.88;4.80;;;;;;;;;;5076734;28;20040;-75
2021/03/11 12:36:17;;;;;;;18.40;4.80;;;;;;;;;;5090106;28;20477;-73
2021/03/11 12:38:43;;;;;;;23.58;5.20;;;;;;;;;;5090240;28;20115;-72
2021/03/11 12:41:09;;;;;;;24.50;5.00;;;;;;;;;;5092659;28;20119;-73
2021/03/11 12:43:36;;;;;;;24.77;5.15;;;;;;;;;;5071685;28;20453;-72
2021/03/11 12:46:02;;;;;;;16.88;4.57;;;;;;;;;;5076313;28;20038;-73
2021/03/11 12:48:29;;;;;;;15.05;4.55;;;;;;;;;;5090370;28;20040;-73
2021/03/11 12:50:55;;;;;;;13.75;3.83;;;;;;;;;;5092896;28;20043;-73
2021/03/11 12:53:22;;;;;;;17.55;4.47;;;;;;;;;;5087427;28;20036;-73
2021/03/11 12:55:48;;;;;;;19.85;4.03;;;;;;;;;;5092484;28;20473;-72
2021/03/11 12:58:14;;;;;;;25.10;4.63;;;;;;;;;;5093484;28;20070;-72
2021/03/11 13:00:41;;;;;;;12.65;4.45;;;;;;;;;;5074966;28;20043;-73
2021/03/11 13:03:07;;;;;;;18.45;4.38;;;;;;;;;;5091576;28;20481;-72
2021/03/11 13:05:33;;;;;;;23.38;4.57;;;;;;;;;;5089421;28;20590;-72
2021/03/11 13:08:00;;;;;;;17.58;3.65;;;;;;;;;;5086506;28;20044;-72
2021/03/11 13:10:26;;;;;;;25.38;4.97;;;;;;;;;;5090360;28;20032;-72
2021/03/11 13:12:52;;;;;;;17.70;4.47;;;;;;;;;;5073183;28;20075;-71
2021/03/11 13:15:19;;;;;;;19.80;4.20;;;;;;;;;;5094165;28;20046;-72
2021/03/11 13:17:46;;;;;;;13.32;3.17;;;;;;;;;;5074708;28;20036;-74
2021/03/11 13:20:12;;;;;;;16.00;3.80;;;;;;;;;;5092685;28;20040;-73
2021/03/11 13:22:38;;;;;;;14.90;3.35;;;;;;;;;;5075097;28;20552;-73
2021/03/11 13:25:05;;;;;;;15.20;3.15;;;;;;;;;;5074935;28;20100;-74
2021/03/11 13:27:31;;;;;;;15.48;3.72;;;;;;;;;;5093420;28;20044;-74
2021/03/11 13:29:57;;;;;;;12.38;2.88;;;;;;;;;;5093323;28;20048;-74
2021/03/11 13:32:23;;;;;;;17.27;3.08;;;;;;;;;;5092783;28;20032;-74
2021/03/11 13:34:49;;;;;;;15.23;3.53;;;;;;;;;;5091902;28;20104;-74
2021/03/11 13:37:15;;;;;;;19.77;3.88;;;;;;;;;;5087865;28;20044;-75
2021/03/11 13:39:41;;;;;;;7.63;2.47;;;;;;;;;;5068077;28;20043;-74
2021/03/11 13:42:07;;;;;;;11.73;2.97;;;;;;;;;;5087777;28;20110;-74
2021/03/11 13:44:33;;;;;;;13.13;3.03;;;;;;;;;;5092071;28;20158;-73
2021/03/11 13:46:59;;;;;;;9.45;3.10;;;;;;;;;;5090538;28;20071;-73
2021/03/11 13:49:26;;;;;;;11.65;3.15;;;;;;;;;;5066239;28;20101;-74
2021/03/11 13:51:52;;;;;;;12.30;3.22;;;;;;;;;;5091076;28;20039;-74
2021/03/11 13:54:18;;;;;;;11.57;2.83;;;;;;;;;;5091036;28;20067;-74
2021/03/11 13:56:44;;;;;;;13.00;2.80;;;;;;;;;;5093066;28;20040;-73
2021/03/11 13:59:10;;;;;;;8.90;3.15;;;;;;;;;;5089145;28;20452;-73
2021/03/11 14:01:36;;;;;;;7.57;1.92;;;;;;;;;;5090362;28;20040;-73
2021/03/11 14:04:02;;;;;;;10.88;2.28;;;;;;;;;;5084959;28;20032;-72
2021/03/11 14:06:28;;;;;;;8.32;2.45;;;;;;;;;;5089682;28;20028;-73
2021/03/11 14:08:55;;;;;;;7.43;2.65;;;;;;;;;;5091300;28;20035;-74
2021/03/11 14:11:21;;;;;;;8.90;2.20;;;;;;;;;;5079903;28;21094;-72
2021/03/11 14:13:47;;;;;;;4.95;1.50;;;;;;;;;;5082906;28;20036;-73
2021/03/11 14:16:13;;;;;;;9.68;2.05;;;;;;;;;;5087490;28;20040;-73
2021/03/11 14:18:39;;;;;;;5.38;1.70;;;;;;;;;;5089033;28;20032;-72
2021/03/11 14:21:05;;;;;;;6.90;1.88;;;;;;;;;;5089289;28;20105;-72
2021/03/11 14:23:31;;;;;;;6.43;1.75;;;;;;;;;;5089566;28;20040;-72
2021/03/11 14:25:57;;;;;;;8.27;1.63;;;;;;;;;;5090010;28;20125;-72
2021/03/11 14:28:23;;;;;;;7.15;1.77;;;;;;;;;;5088858;28;20116;-73
2021/03/11 14:30:49;;;;;;;8.25;1.30;;;;;;;;;;5089789;28;20060;-73
2021/03/11 14:33:16;;;;;;;8.95;1.50;;;;;;;;;;5074480;28;20075;-73